Latest Weather Observations for Kurnell

IDN60901

Issued at 10:11 pm EST Sunday 28 August 2016 (issued every 10 minutes, with the page automatically refreshed every 10 minutes)

About weather observations | Map of Sydney area stations | Latest observations for Sydney area | Other Formats
Station Details ID: 066043 Name: KURNELL AWS Lat: -34.00 Lon: 151.21 Height: 4.0 m
Data from the previous 72 hours. | See also: Recent months for locations in New South Wales
Date/Time
EST
Temp
°C
App
Temp
°C
Dew
Point
°C
Rel
Hum
%
Delta-T
°C
Wind Press
QNH
hPa
Press
MSL
hPa
Rain since
9am
mm
Dir  Spd
km/h
Gust
km/h
Spd
kts
Gust
kts
28/10:00pm - - - - - CALM 0 0 0 0 - - -
28/09:30pm - - - - - W 9 13 5 7 - - -
28/09:00pm - - - - - WSW 6 7 3 4 - - -
28/08:30pm - - - - - WSW 7 9 4 5 - - -
28/08:00pm - - - - - SSW 4 7 2 4 - - -
28/07:30pm - - - - - CALM 0 0 0 0 - - -
28/07:00pm - - - - - SSW 6 9 3 5 - - -
28/06:30pm - - - - - SW 13 15 7 8 - - -
28/06:00pm - - - - - SSW 13 13 7 7 - - -
28/05:30pm - - - - - SW 9 11 5 6 - - -
28/05:00pm - - - - - S 9 11 5 6 - - -
28/04:30pm - - - - - SSW 7 11 4 6 - - -
28/04:00pm - - - - - S 13 19 7 10 - - -
28/03:30pm - - - - - S 15 24 8 13 - - -
28/03:00pm - - - - - S 15 20 8 11 - - -
28/02:30pm - - - - - SSE 13 20 7 11 - - -
28/02:00pm - - - - - SSE 17 24 9 13 - - -
28/01:30pm - - - - - SSE 19 28 10 15 - - -
28/01:00pm - - - - - S 19 26 10 14 - - -
28/12:30pm - - - - - S 15 24 8 13 - - -
28/12:00pm - - - - - SSE 13 19 7 10 - - -
28/11:30am - - - - - W 19 26 10 14 - - -
28/11:00am - - - - - W 20 26 11 14 - - -
28/10:30am - - - - - WNW 22 26 12 14 - - -
28/10:00am - - - - - NW 20 28 11 15 - - -
28/09:30am - - - - - WNW 24 28 13 15 - - -
28/09:00am - - - - - WNW 24 28 13 15 - - -
28/08:30am - - - - - NW 20 26 11 14 - - -
28/08:00am - - - - - WNW 19 22 10 12 - - -
28/07:30am - - - - - WNW 22 28 12 15 - - -
28/07:00am - - - - - WNW 30 39 16 21 - - -
28/06:30am - - - - - WNW 26 32 14 17 - - -
28/06:00am - - - - - WNW 26 33 14 18 - - -
28/05:30am - - - - - WNW 28 33 15 18 - - -
28/05:00am - - - - - WNW 30 32 16 17 - - -
28/04:30am - - - - - WNW 28 32 15 17 - - -
28/04:00am - - - - - WNW 26 30 14 16 - - -
28/03:30am - - - - - WNW 20 26 11 14 - - -
28/03:00am - - - - - WNW 17 20 9 11 - - -
28/02:30am - - - - - WNW 17 22 9 12 - - -
28/02:00am - - - - - WNW 15 26 8 14 - - -
28/01:30am - - - - - W 13 19 7 10 - - -
28/01:00am - - - - - W 20 26 11 14 - - -
28/12:30am - - - - - W 26 30 14 16 - - -
28/12:00am - - - - - W 15 19 8 10 - - -
 
Date/Time
EST
Temp
°C
App
Temp
°C
Dew
Point
°C
Rel
Hum
%
Delta-T
°C
Wind Press
QNH
hPa
Press
MSL
hPa
Rain since
9am
mm
Dir  Spd
km/h
Gust
km/h
Spd
kts
Gust
kts
27/11:30pm - - - - - WSW 11 13 6 7 - - -
27/11:00pm - - - - - WSW 17 19 9 10 - - -
27/10:30pm - - - - - WSW 19 22 10 12 - - -
27/10:00pm - - - - - NW 15 15 8 8 - - -
27/09:30pm - - - - - WNW 17 19 9 10 - - -
27/09:00pm - - - - - N 17 20 9 11 - - -
27/08:30pm - - - - - NNW 11 15 6 8 - - -
27/08:00pm - - - - - N 13 15 7 8 - - -
27/07:30pm - - - - - NNE 19 24 10 13 - - -
27/07:00pm - - - - - NNE 20 26 11 14 - - -
27/06:30pm - - - - - NNE 22 26 12 14 - - -
27/06:00pm - - - - - NE 20 26 11 14 - - -
27/05:30pm - - - - - NE 20 24 11 13 - - -
27/05:00pm - - - - - NE 26 28 14 15 - - -
27/04:30pm - - - - - NE 24 28 13 15 - - -
27/04:00pm - - - - - ENE 22 28 12 15 - - -
27/03:30pm - - - - - ENE 24 28 13 15 - - -
27/03:00pm - - - - - ENE 24 28 13 15 - - -
27/02:30pm - - - - - E 13 17 7 9 - - -
27/02:00pm - - - - - ENE 15 19 8 10 - - -
27/01:30pm - - - - - NW 4 7 2 4 - - -
27/01:00pm - - - - - NW 2 6 1 3 - - -
27/12:30pm - - - - - CALM 0 4 0 2 - - -
27/12:00pm - - - - - WNW 9 11 5 6 - - -
27/11:30am - - - - - WNW 15 17 8 9 - - -
27/11:00am - - - - - WNW 17 20 9 11 - - -
27/10:30am - - - - - WNW 19 20 10 11 - - -
27/10:00am - - - - - WNW 20 24 11 13 - - -
27/09:30am - - - - - WNW 17 19 9 10 - - -
27/09:00am - - - - - WNW 15 19 8 10 - - -
27/08:30am - - - - - WNW 15 17 8 9 - - -
27/08:00am - - - - - W 20 26 11 14 - - -
27/07:30am - - - - - W 20 26 11 14 - - -
27/07:00am - - - - - W 19 24 10 13 - - -
27/06:30am - - - - - W 17 20 9 11 - - -
27/06:00am - - - - - W 17 20 9 11 - - -
27/05:30am - - - - - W 19 26 10 14 - - -
27/05:00am - - - - - WNW 17 20 9 11 - - -
27/04:30am - - - - - WSW 15 19 8 10 - - -
27/04:00am - - - - - W 22 28 12 15 - - -
27/03:30am - - - - - WSW 19 24 10 13 - - -
27/03:00am - - - - - W 20 26 11 14 - - -
27/02:30am - - - - - WSW 15 17 8 9 - - -
27/02:00am - - - - - WSW 15 19 8 10 - - -
27/01:30am - - - - - WSW 15 20 8 11 - - -
27/01:00am - - - - - SW 11 15 6 8 - - -
27/12:30am - - - - - SSW 13 15 7 8 - - -
27/12:00am - - - - - SW 15 24 8 13 - - -
 
Date/Time
EST
Temp
°C
App
Temp
°C
Dew
Point
°C
Rel
Hum
%
Delta-T
°C
Wind Press
QNH
hPa
Press
MSL
hPa
Rain since
9am
mm
Dir  Spd
km/h
Gust
km/h
Spd
kts
Gust
kts
26/11:30pm - - - - - W 9 15 5 8 - - -
26/11:00pm - - - - - WSW 15 19 8 10 - - -
26/10:30pm - - - - - W 17 19 9 10 - - -
26/10:00pm - - - - - SW 11 13 6 7 - - -
26/09:30pm - - - - - SSE 6 7 3 4 - - -
26/09:00pm - - - - - SSW 20 28 11 15 - - -
26/08:30pm - - - - - SW 15 32 8 17 - - -
26/08:00pm - - - - - SSW 20 30 11 16 - - -
26/07:30pm - - - - - SSE 30 41 16 22 - - -
26/07:14pm - - - - - S 28 46 15 25 - - -
26/07:00pm - - - - - SSW 19 26 10 14 - - -
26/06:30pm - - - - - WSW 17 22 9 12 - - -
26/06:00pm - - - - - SSW 33 41 18 22 - - -
26/05:30pm - - - - - S 28 39 15 21 - - -
26/05:00pm - - - - - SSW 30 37 16 20 - - -
26/04:30pm - - - - - S 30 37 16 20 - - -
26/04:00pm - - - - - SSW 30 41 16 22 - - -
26/03:30pm - - - - - SSW 30 39 16 21 - - -
26/03:00pm - - - - - SSW 30 37 16 20 - - -
26/02:30pm - - - - - SSW 33 41 18 22 - - -
26/02:00pm - - - - - SSW 33 44 18 24 - - -
26/01:30pm - - - - - SSW 30 37 16 20 - - -
26/01:00pm - - - - - SSW 32 41 17 22 - - -
26/12:30pm - - - - - SSW 30 41 16 22 - - -
26/12:00pm - - - - - SW 32 44 17 24 - - -
26/11:30am - - - - - SSW 32 39 17 21 - - -
26/11:00am - - - - - SSW 32 43 17 23 - - -
26/10:30am - - - - - SSW 33 48 18 26 - - -
26/10:00am - - - - - SW 33 44 18 24 - - -
26/09:30am - - - - - SW 30 39 16 21 - - -
26/09:00am - - - - - SW 15 30 8 16 - - -
26/08:30am - - - - - W 20 26 11 14 - - -
26/08:00am - - - - - W 28 33 15 18 - - -
26/07:30am - - - - - W 22 30 12 16 - - -
26/07:00am - - - - - W 22 28 12 15 - - -
26/06:30am - - - - - W 26 32 14 17 - - -
26/06:00am - - - - - W 30 33 16 18 - - -
26/05:30am - - - - - W 26 30 14 16 - - -
26/05:00am - - - - - W 26 32 14 17 - - -
26/04:30am - - - - - W 22 28 12 15 - - -
26/04:00am - - - - - W 24 28 13 15 - - -
26/03:30am - - - - - W 24 28 13 15 - - -
26/03:00am - - - - - W 20 28 11 15 - - -
26/02:30am - - - - - W 22 28 12 15 - - -
26/02:00am - - - - - WSW 28 33 15 18 - - -
26/01:30am - - - - - WSW 28 32 15 17 - - -
26/01:00am - - - - - WSW 28 32 15 17 - - -
26/12:30am - - - - - WSW 28 35 15 19 - - -
26/12:00am - - - - - WSW 20 28 11 15 - - -
 
Date/Time
EST
Temp
°C
App
Temp
°C
Dew
Point
°C
Rel
Hum
%
Delta-T
°C
Wind Press
QNH
hPa
Press
MSL
hPa
Rain since
9am
mm
Dir  Spd
km/h
Gust
km/h
Spd
kts
Gust
kts
25/11:30pm - - - - - WSW 19 28 10 15 - - -
25/11:00pm - - - - - W 19 24 10 13 - - -
25/10:30pm - - - - - W 24 32 13 17 - - -

Latest Capital City Observations: Canberra | Sydney | Melbourne | Brisbane | Adelaide | Perth | Hobart | Darwin

Other Formats:

Comma delimited format used in spreadsheet applications
http://www.bom.gov.au/fwo/IDN60901/IDN60901.95756.axf

JavaScript Object Notation format (JSON) in row-major order
http://www.bom.gov.au/fwo/IDN60901/IDN60901.95756.json